createdAt,value
2023-05-16T00:01:18.248Z,19.05
2023-05-16T00:03:45.416Z,19.00
2023-05-16T00:06:12.169Z,18.96
2023-05-16T00:08:38.777Z,18.92
2023-05-16T00:11:05.416Z,18.90
2023-05-16T00:13:32.069Z,18.87
2023-05-16T00:16:02.408Z,18.87
2023-05-16T00:18:29.094Z,18.87
2023-05-16T00:20:56.314Z,18.89
2023-05-16T00:23:22.725Z,18.90
2023-05-16T00:25:49.222Z,18.93
2023-05-16T00:28:15.811Z,18.95
2023-05-16T00:30:42.228Z,18.97
2023-05-16T00:33:08.797Z,19.00
2023-05-16T00:35:35.273Z,19.01
2023-05-16T00:38:01.677Z,19.00
2023-05-16T00:40:28.474Z,19.01
2023-05-16T00:42:54.965Z,19.00
2023-05-16T00:45:21.576Z,18.99
2023-05-16T00:47:48.357Z,18.98
2023-05-16T00:50:15.136Z,18.98
2023-05-16T00:52:41.784Z,18.96
2023-05-16T00:55:10.443Z,18.94
2023-05-16T00:57:38.591Z,18.90
2023-05-16T01:00:12.266Z,18.86
2023-05-16T01:02:38.689Z,18.85
2023-05-16T01:05:05.501Z,18.81
2023-05-16T01:07:32.120Z,18.78
2023-05-16T01:09:59.010Z,18.75
2023-05-16T01:12:33.730Z,18.70
2023-05-16T01:15:13.529Z,18.69
2023-05-16T01:18:01.005Z,18.69
2023-05-16T01:20:36.766Z,18.68
2023-05-16T01:23:15.482Z,18.67
2023-05-16T01:25:45.627Z,18.65
2023-05-16T01:28:16.385Z,18.63
2023-05-16T01:30:43.105Z,18.60
2023-05-16T01:33:10.417Z,18.59
2023-05-16T01:35:43.617Z,18.53
2023-05-16T01:38:26.341Z,18.48
2023-05-16T01:41:02.294Z,18.48
2023-05-16T01:43:42.709Z,18.45
2023-05-16T01:46:31.590Z,18.43
2023-05-16T01:49:08.732Z,18.44
2023-05-16T01:51:39.928Z,18.42
2023-05-16T01:54:11.146Z,18.39
2023-05-16T01:56:38.113Z,18.35
2023-05-16T01:59:05.478Z,18.26
2023-05-16T02:01:32.165Z,18.18
2023-05-16T02:03:59.056Z,18.10
2023-05-16T02:06:26.524Z,18.02
2023-05-16T02:08:53.150Z,17.91
2023-05-16T02:11:19.837Z,17.86
2023-05-16T02:13:46.599Z,17.79
2023-05-16T02:16:13.306Z,17.69
2023-05-16T02:18:39.737Z,17.63
2023-05-16T02:21:06.442Z,17.56
2023-05-16T02:23:32.818Z,17.50
2023-05-16T02:25:59.320Z,17.44
2023-05-16T02:28:25.824Z,17.38
2023-05-16T02:30:59.287Z,17.30
2023-05-16T02:33:27.447Z,17.26
2023-05-16T02:35:54.593Z,17.20
2023-05-16T02:38:21.282Z,17.16
2023-05-16T02:40:48.412Z,17.12
2023-05-16T02:43:14.842Z,17.08
2023-05-16T02:45:41.252Z,17.06
2023-05-16T02:48:07.792Z,17.05
2023-05-16T02:50:34.641Z,17.04
2023-05-16T02:53:02.376Z,17.04
2023-05-16T02:55:29.297Z,17.04
2023-05-16T02:57:55.681Z,17.03
2023-05-16T03:00:22.663Z,17.02
2023-05-16T03:02:49.466Z,17.02
2023-05-16T03:05:16.956Z,17.00
2023-05-16T03:07:43.333Z,17.00
2023-05-16T03:10:09.882Z,17.01
2023-05-16T03:12:36.452Z,17.02
2023-05-16T03:15:04.030Z,17.02
2023-05-16T03:17:30.796Z,17.05
2023-05-16T03:19:57.311Z,17.06
2023-05-16T03:22:24.713Z,17.10
2023-05-16T03:24:51.316Z,17.11
2023-05-16T03:27:17.705Z,17.11
2023-05-16T03:29:44.044Z,17.12
2023-05-16T03:32:12.706Z,17.14
2023-05-16T03:34:39.324Z,17.12
2023-05-16T03:37:06.461Z,17.14
2023-05-16T03:39:32.804Z,17.14
2023-05-16T03:41:59.356Z,17.16
2023-05-16T03:44:25.759Z,17.17
2023-05-16T03:46:52.878Z,17.16
2023-05-16T03:49:20.887Z,17.18
2023-05-16T03:51:47.359Z,17.18
2023-05-16T03:54:13.946Z,17.16
2023-05-16T03:56:40.461Z,17.15
2023-05-16T03:59:07.067Z,17.14
2023-05-16T04:01:33.480Z,17.12
2023-05-16T04:04:00.238Z,17.11
2023-05-16T04:06:27.206Z,17.06
2023-05-16T04:08:53.773Z,17.05
2023-05-16T04:11:20.120Z,17.02
2023-05-16T04:13:46.567Z,16.99
2023-05-16T04:16:13.030Z,16.94
2023-05-16T04:18:39.565Z,16.90
2023-05-16T04:21:06.233Z,16.86
2023-05-16T04:23:32.896Z,16.85
2023-05-16T04:25:59.771Z,16.83
2023-05-16T04:28:26.355Z,16.82
2023-05-16T04:30:53.835Z,16.81
2023-05-16T04:33:20.214Z,16.77
2023-05-16T04:35:46.586Z,16.74
2023-05-16T04:38:13.140Z,16.69
2023-05-16T04:40:41.702Z,16.66
2023-05-16T04:43:08.245Z,16.64
2023-05-16T04:45:36.745Z,16.64
2023-05-16T04:48:04.304Z,16.62
2023-05-16T04:50:30.708Z,16.59
2023-05-16T04:52:57.479Z,16.58
2023-05-16T04:55:24.331Z,16.58
2023-05-16T04:57:51.123Z,16.55
2023-05-16T05:00:17.676Z,16.54
2023-05-16T05:02:44.883Z,16.52
2023-05-16T05:05:11.392Z,16.52
2023-05-16T05:07:38.399Z,16.51
2023-05-16T05:10:07.313Z,16.51
2023-05-16T05:12:34.165Z,16.52
2023-05-16T05:15:00.563Z,16.54
2023-05-16T05:17:27.124Z,16.55
2023-05-16T05:19:53.839Z,16.56
2023-05-16T05:22:20.591Z,16.57
2023-05-16T05:24:47.028Z,16.59
2023-05-16T05:27:13.564Z,16.60
2023-05-16T05:29:40.226Z,16.62
2023-05-16T05:32:07.105Z,16.61
2023-05-16T05:34:33.519Z,16.61
2023-05-16T05:37:00.097Z,16.60
2023-05-16T05:39:26.833Z,16.58
2023-05-16T05:41:53.256Z,16.57
2023-05-16T05:44:19.688Z,16.56
2023-05-16T05:46:46.370Z,16.57
2023-05-16T05:49:12.998Z,16.57
2023-05-16T05:51:39.631Z,16.58
2023-05-16T05:54:06.311Z,16.58
2023-05-16T05:56:32.718Z,16.61
2023-05-16T05:58:59.529Z,16.63
2023-05-16T06:01:26.002Z,16.63
2023-05-16T06:03:52.338Z,16.65
2023-05-16T06:06:19.934Z,16.66
2023-05-16T06:08:46.338Z,16.67
2023-05-16T06:11:12.726Z,16.68
2023-05-16T06:13:39.110Z,16.69
2023-05-16T06:16:07.508Z,16.72
2023-05-16T06:18:35.640Z,16.75
2023-05-16T06:21:03.975Z,16.77
2023-05-16T06:23:31.186Z,16.78
2023-05-16T06:25:58.211Z,16.81
2023-05-16T06:28:26.209Z,16.83
2023-05-16T06:30:52.608Z,16.86
2023-05-16T06:33:19.432Z,16.86
2023-05-16T06:35:46.377Z,16.87
2023-05-16T06:38:12.885Z,16.90
2023-05-16T06:40:41.162Z,16.92
2023-05-16T06:43:09.551Z,16.98
2023-05-16T06:45:36.410Z,17.00
2023-05-16T06:48:02.893Z,17.00
2023-05-16T06:50:29.548Z,17.03
2023-05-16T06:52:58.368Z,17.02
2023-05-16T06:55:26.437Z,17.05
2023-05-16T06:57:53.052Z,17.07
2023-05-16T07:00:19.918Z,17.07
2023-05-16T07:02:46.892Z,17.09
2023-05-16T07:05:16.707Z,17.09
2023-05-16T07:07:43.428Z,17.11
2023-05-16T07:10:10.373Z,17.16
2023-05-16T07:12:39.018Z,17.18
2023-05-16T07:15:08.060Z,17.21
2023-05-16T07:17:35.263Z,17.28
2023-05-16T07:20:05.120Z,17.27
2023-05-16T07:22:32.033Z,17.28
2023-05-16T07:25:00.874Z,17.29
2023-05-16T07:27:28.196Z,17.29
2023-05-16T07:29:54.827Z,17.33
2023-05-16T07:32:21.434Z,17.35
2023-05-16T07:34:48.256Z,17.42
2023-05-16T07:37:16.397Z,17.47
2023-05-16T07:39:43.018Z,17.56
2023-05-16T07:42:09.830Z,17.66
2023-05-16T07:44:36.361Z,17.78
2023-05-16T07:47:05.379Z,17.86
2023-05-16T07:49:31.849Z,17.97
2023-05-16T07:51:58.552Z,18.04
2023-05-16T07:54:25.090Z,18.12
2023-05-16T07:56:51.462Z,18.16
2023-05-16T07:59:18.026Z,18.21
2023-05-16T08:01:45.083Z,18.28
2023-05-16T08:04:13.100Z,18.36
2023-05-16T08:06:40.808Z,18.46
2023-05-16T08:09:09.525Z,18.59
2023-05-16T08:11:36.483Z,18.72
2023-05-16T08:14:03.649Z,18.86
2023-05-16T08:16:31.313Z,19.02
2023-05-16T08:18:58.623Z,19.18
2023-05-16T08:21:25.326Z,19.35
2023-05-16T08:23:51.866Z,19.48
2023-05-16T08:26:18.858Z,19.62
2023-05-16T08:28:45.796Z,19.75
2023-05-16T08:31:12.248Z,19.87
2023-05-16T08:33:43.127Z,19.97
2023-05-16T08:36:10.153Z,20.09
2023-05-16T08:38:37.317Z,20.14
2023-05-16T08:41:04.240Z,20.20
2023-05-16T08:43:31.195Z,20.23
2023-05-16T08:45:57.757Z,20.32
2023-05-16T08:48:26.645Z,20.39
2023-05-16T08:50:56.708Z,20.47
2023-05-16T08:53:34.505Z,20.49
2023-05-16T08:56:01.754Z,20.53
2023-05-16T08:58:30.390Z,20.50
2023-05-16T09:00:57.407Z,20.49
2023-05-16T09:03:25.219Z,20.47
2023-05-16T09:05:52.587Z,20.42
2023-05-16T09:08:20.574Z,20.35
2023-05-16T09:10:47.006Z,20.31
2023-05-16T09:13:13.958Z,20.29
2023-05-16T09:15:41.223Z,20.30
2023-05-16T09:18:14.263Z,20.30
2023-05-16T09:20:50.111Z,20.36
2023-05-16T09:23:24.706Z,20.37
2023-05-16T09:25:53.537Z,20.42
2023-05-16T09:28:20.998Z,20.45
2023-05-16T09:30:47.951Z,20.46
2023-05-16T09:33:16.590Z,20.47
2023-05-16T09:35:45.316Z,20.45
2023-05-16T09:38:18.343Z,20.42
2023-05-16T09:40:46.536Z,20.40
2023-05-16T09:43:18.959Z,20.39
2023-05-16T09:45:49.349Z,20.38
2023-05-16T09:48:17.450Z,20.37
2023-05-16T09:50:57.569Z,20.36
2023-05-16T09:53:30.182Z,20.33
2023-05-16T09:56:08.332Z,20.28
2023-05-16T09:58:38.143Z,20.32
2023-05-16T10:01:05.962Z,20.29
2023-05-16T10:03:34.951Z,20.26
2023-05-16T10:06:05.743Z,20.23
2023-05-16T10:08:36.373Z,20.20
2023-05-16T10:11:04.956Z,20.17
2023-05-16T10:13:34.703Z,20.17
2023-05-16T10:16:08.559Z,20.19
2023-05-16T10:18:36.484Z,20.20
2023-05-16T10:21:11.855Z,20.20
2023-05-16T10:23:42.636Z,20.25
2023-05-16T10:26:11.781Z,20.28
2023-05-16T10:28:39.965Z,20.33
2023-05-16T10:31:08.371Z,20.36
2023-05-16T10:33:42.957Z,20.36
2023-05-16T10:36:11.227Z,20.37
2023-05-16T10:38:39.014Z,20.37
2023-05-16T10:41:07.023Z,20.35
2023-05-16T10:43:33.796Z,20.35
2023-05-16T10:46:16.566Z,20.32
2023-05-16T10:48:42.986Z,20.37
2023-05-16T10:51:39.291Z,20.38
2023-05-16T10:54:15.564Z,20.42
2023-05-16T10:56:43.572Z,20.47
2023-05-16T10:59:27.299Z,20.46
2023-05-16T11:01:57.550Z,20.48
2023-05-16T11:04:24.214Z,20.49
2023-05-16T11:06:53.460Z,20.49
2023-05-16T11:09:23.583Z,20.50
2023-05-16T11:11:59.362Z,20.50
2023-05-16T11:14:25.897Z,20.53
2023-05-16T11:17:11.076Z,20.50
2023-05-16T11:19:45.426Z,20.51
2023-05-16T11:22:22.893Z,20.53
2023-05-16T11:24:52.303Z,20.60
2023-05-16T11:27:28.930Z,20.59
2023-05-16T11:30:02.007Z,20.62
2023-05-16T11:32:30.876Z,20.68
2023-05-16T11:34:58.148Z,20.73
2023-05-16T11:37:25.929Z,20.77
2023-05-16T11:39:52.544Z,20.82
2023-05-16T11:42:19.328Z,20.86
2023-05-16T11:44:46.099Z,20.88
2023-05-16T11:47:12.720Z,20.89
2023-05-16T11:49:39.636Z,20.86
2023-05-16T11:52:08.532Z,20.85
2023-05-16T11:54:35.184Z,20.83
2023-05-16T11:57:02.207Z,20.79
2023-05-16T11:59:30.030Z,20.77
2023-05-16T12:01:56.549Z,20.74
2023-05-16T12:04:23.575Z,20.72
2023-05-16T12:07:00.148Z,20.65
2023-05-16T12:09:29.264Z,20.66
2023-05-16T12:11:55.988Z,20.65
2023-05-16T12:14:23.858Z,20.66
2023-05-16T12:16:52.912Z,20.66
2023-05-16T12:19:20.349Z,20.69
2023-05-16T12:21:46.948Z,20.71
2023-05-16T12:24:14.692Z,20.73
2023-05-16T12:26:42.465Z,20.75
2023-05-16T12:29:09.054Z,20.79
2023-05-16T12:31:41.979Z,20.79
2023-05-16T12:34:21.901Z,20.84
2023-05-16T12:36:51.906Z,20.92
2023-05-16T12:39:18.635Z,21.00
2023-05-16T12:41:45.236Z,21.08
2023-05-16T12:44:18.025Z,21.14
2023-05-16T12:46:50.286Z,21.22
2023-05-16T12:49:20.926Z,21.25
2023-05-16T12:51:56.023Z,21.27
2023-05-16T12:54:23.020Z,21.30
2023-05-16T12:56:49.762Z,21.32
2023-05-16T12:59:16.688Z,21.32
2023-05-16T13:01:44.494Z,21.30
2023-05-16T13:04:16.851Z,21.30
2023-05-16T13:06:57.571Z,21.28
2023-05-16T13:09:24.689Z,21.27
2023-05-16T13:11:51.264Z,21.23
2023-05-16T13:14:18.737Z,21.22
2023-05-16T13:16:45.954Z,21.19
2023-05-16T13:19:12.612Z,21.19
2023-05-16T13:21:39.029Z,21.18
2023-05-16T13:24:06.019Z,21.18
2023-05-16T13:26:32.741Z,21.19
2023-05-16T13:28:59.526Z,21.21
2023-05-16T13:31:26.044Z,21.25
2023-05-16T13:33:52.690Z,21.28
2023-05-16T13:36:19.153Z,21.33
2023-05-16T13:38:45.640Z,21.38
2023-05-16T13:41:12.246Z,21.41
2023-05-16T13:43:40.202Z,21.43
2023-05-16T13:46:07.269Z,21.45
2023-05-16T13:48:33.868Z,21.45
2023-05-16T13:51:00.278Z,21.45
2023-05-16T13:53:26.956Z,21.47
2023-05-16T13:55:53.726Z,21.48
2023-05-16T13:58:20.386Z,21.47
2023-05-16T14:00:48.560Z,21.47
2023-05-16T14:03:15.405Z,21.48
2023-05-16T14:05:42.605Z,21.50
2023-05-16T14:08:09.047Z,21.51
2023-05-16T14:10:35.651Z,21.52
2023-05-16T14:13:02.469Z,21.54
2023-05-16T14:15:29.150Z,21.55
2023-05-16T14:17:55.841Z,21.55
2023-05-16T14:20:22.833Z,21.57
2023-05-16T14:22:49.285Z,21.57
2023-05-16T14:25:15.844Z,21.56
2023-05-16T14:27:42.291Z,21.57
2023-05-16T14:30:09.538Z,21.60
2023-05-16T14:32:36.327Z,21.60
2023-05-16T14:35:05.258Z,21.59
2023-05-16T14:37:31.831Z,21.58
2023-05-16T14:39:59.847Z,21.55
2023-05-16T14:42:26.754Z,21.51
2023-05-16T14:44:53.263Z,21.47
2023-05-16T14:47:19.941Z,21.42
2023-05-16T14:49:46.409Z,21.37
2023-05-16T14:52:13.031Z,21.33
2023-05-16T14:54:41.333Z,21.31
2023-05-16T14:57:08.362Z,21.29
2023-05-16T14:59:34.776Z,21.29
2023-05-16T15:02:01.389Z,21.28
2023-05-16T15:04:28.873Z,21.28
2023-05-16T15:06:55.944Z,21.30
2023-05-16T15:09:22.636Z,21.32
2023-05-16T15:11:49.116Z,21.31
2023-05-16T15:14:15.972Z,21.31
2023-05-16T15:16:43.434Z,21.35
2023-05-16T15:19:10.141Z,21.35
2023-05-16T15:21:37.230Z,21.33
2023-05-16T15:24:03.763Z,21.35
2023-05-16T15:26:31.077Z,21.34
2023-05-16T15:28:57.948Z,21.32
2023-05-16T15:31:24.408Z,21.30
2023-05-16T15:33:51.179Z,21.29
2023-05-16T15:36:17.722Z,21.28
2023-05-16T15:38:45.622Z,21.27
2023-05-16T15:43:42.512Z,21.25
2023-05-16T15:46:11.091Z,21.24
2023-05-16T15:48:38.304Z,21.24
2023-05-16T15:51:04.976Z,21.26
2023-05-16T15:53:31.405Z,21.22
2023-05-16T15:55:57.882Z,21.17
2023-05-16T15:58:24.331Z,21.14
2023-05-16T16:00:51.186Z,21.09
2023-05-16T16:03:17.710Z,21.03
2023-05-16T16:05:44.239Z,20.96
2023-05-16T16:08:10.784Z,20.91
2023-05-16T16:10:37.512Z,20.85
2023-05-16T16:13:04.667Z,20.79
2023-05-16T16:15:33.502Z,20.76
2023-05-16T16:18:00.812Z,20.72
2023-05-16T16:20:27.723Z,20.67
2023-05-16T16:22:54.344Z,20.64
2023-05-16T16:25:20.813Z,20.60
2023-05-16T16:27:47.217Z,20.58
2023-05-16T16:30:13.769Z,20.56
2023-05-16T16:32:41.148Z,20.54
2023-05-16T16:35:07.925Z,20.51
2023-05-16T16:37:34.869Z,20.49
2023-05-16T16:40:01.508Z,20.48
2023-05-16T16:42:30.380Z,20.46
2023-05-16T16:44:57.243Z,20.45
2023-05-16T16:47:25.285Z,20.43
2023-05-16T16:50:01.449Z,20.40
2023-05-16T16:52:28.280Z,20.41
2023-05-16T16:54:57.797Z,20.37
2023-05-16T16:57:24.409Z,20.37
2023-05-16T16:59:51.196Z,20.35
2023-05-16T17:02:19.080Z,20.32
2023-05-16T17:04:45.537Z,20.33
2023-05-16T17:07:11.987Z,20.32
2023-05-16T17:09:42.103Z,20.31
2023-05-16T17:12:14.840Z,20.29
2023-05-16T17:14:42.834Z,20.25
2023-05-16T17:17:09.316Z,20.24
2023-05-16T17:19:35.881Z,20.18
2023-05-16T17:22:02.493Z,20.16
2023-05-16T17:24:29.110Z,20.13
2023-05-16T17:26:57.191Z,20.08
2023-05-16T17:29:23.962Z,20.03
2023-05-16T17:31:50.687Z,20.00
2023-05-16T17:34:17.310Z,19.97
2023-05-16T17:36:43.788Z,19.95
2023-05-16T17:39:10.926Z,19.92
2023-05-16T17:41:38.657Z,19.90
2023-05-16T17:44:06.966Z,19.88
2023-05-16T17:46:34.948Z,19.84
2023-05-16T17:49:01.433Z,19.83
2023-05-16T17:51:28.356Z,19.81
2023-05-16T17:53:54.899Z,19.79
2023-05-16T17:56:22.667Z,19.77
2023-05-16T17:58:49.199Z,19.75
2023-05-16T18:01:15.603Z,19.74
2023-05-16T18:03:43.414Z,19.73
2023-05-16T18:06:11.607Z,19.70
2023-05-16T18:08:38.425Z,19.69
2023-05-16T18:11:05.311Z,19.67
2023-05-16T18:13:33.052Z,19.67
2023-05-16T18:15:59.705Z,19.67
2023-05-16T18:18:32.345Z,19.66
2023-05-16T18:20:59.800Z,19.66
2023-05-16T18:23:28.860Z,19.65
2023-05-16T18:25:55.383Z,19.64
2023-05-16T18:28:23.062Z,19.63
2023-05-16T18:30:49.437Z,19.63
2023-05-16T18:33:16.311Z,19.62
2023-05-16T18:35:43.131Z,19.61
2023-05-16T18:38:20.307Z,19.60
2023-05-16T18:40:55.254Z,19.59
2023-05-16T18:43:22.719Z,19.59
2023-05-16T18:45:50.603Z,19.58
2023-05-16T18:48:17.707Z,19.58
2023-05-16T18:50:45.000Z,19.56
2023-05-16T18:53:12.306Z,19.56
2023-05-16T18:55:40.305Z,19.53
2023-05-16T18:58:07.036Z,19.51
2023-05-16T19:00:34.502Z,19.49
2023-05-16T19:03:01.629Z,19.46
2023-05-16T19:05:28.547Z,19.45
2023-05-16T19:07:55.234Z,19.42
2023-05-16T19:10:22.292Z,19.40
2023-05-16T19:12:49.334Z,19.39
2023-05-16T19:15:15.938Z,19.38
2023-05-16T19:17:42.659Z,19.36
2023-05-16T19:20:10.812Z,19.35
2023-05-16T19:22:37.677Z,19.35
2023-05-16T19:25:06.927Z,19.35
2023-05-16T19:27:33.658Z,19.33
2023-05-16T19:30:01.486Z,19.34
2023-05-16T19:32:30.237Z,19.32
2023-05-16T19:34:57.453Z,19.31
2023-05-16T19:37:24.596Z,19.30
2023-05-16T19:39:52.411Z,19.28
2023-05-16T19:42:18.831Z,19.25
2023-05-16T19:44:45.375Z,19.24
2023-05-16T19:47:12.057Z,19.22
2023-05-16T19:49:38.754Z,19.20
2023-05-16T19:52:09.031Z,19.19
2023-05-16T19:54:35.397Z,19.17
2023-05-16T19:57:04.251Z,19.18
2023-05-16T19:59:32.758Z,19.18
2023-05-16T20:02:02.321Z,19.18
2023-05-16T20:04:29.060Z,19.17
2023-05-16T20:06:55.948Z,19.17
2023-05-16T20:09:22.479Z,19.18
2023-05-16T20:11:49.616Z,19.17
2023-05-16T20:14:16.080Z,19.17
2023-05-16T20:16:43.177Z,19.15
2023-05-16T20:19:09.944Z,19.14
2023-05-16T20:21:37.026Z,19.12
2023-05-16T20:24:06.827Z,19.12
2023-05-16T20:26:33.744Z,19.10
2023-05-16T20:29:02.656Z,19.08
2023-05-16T20:31:29.706Z,19.07
2023-05-16T20:33:56.173Z,19.07
2023-05-16T20:36:23.922Z,19.06
2023-05-16T20:38:51.777Z,19.07
2023-05-16T20:41:21.875Z,19.07
2023-05-16T20:43:50.465Z,19.08
2023-05-16T20:46:17.124Z,19.08
2023-05-16T20:48:43.942Z,19.07
2023-05-16T20:51:10.690Z,19.07
2023-05-16T20:53:38.339Z,19.05
2023-05-16T20:56:05.143Z,19.06
2023-05-16T20:58:32.184Z,19.03
2023-05-16T21:00:58.634Z,18.99
2023-05-16T21:03:25.467Z,18.98
2023-05-16T21:05:54.589Z,18.95
2023-05-16T21:08:21.028Z,18.94
2023-05-16T21:10:47.435Z,18.91
2023-05-16T21:13:13.949Z,18.91
2023-05-16T21:15:40.446Z,18.88
2023-05-16T21:18:07.168Z,18.85
2023-05-16T21:20:33.845Z,18.83
2023-05-16T21:23:00.805Z,18.80
2023-05-16T21:25:28.686Z,18.80
2023-05-16T21:27:56.238Z,18.77
2023-05-16T21:30:22.973Z,18.75
2023-05-16T21:32:50.869Z,18.73
2023-05-16T21:35:17.429Z,18.72
2023-05-16T21:37:43.867Z,18.69
2023-05-16T21:40:16.660Z,18.66
2023-05-16T21:42:43.326Z,18.63
2023-05-16T21:45:15.673Z,18.60
2023-05-16T21:47:43.184Z,18.57
2023-05-16T21:50:13.111Z,18.53
2023-05-16T21:52:39.984Z,18.48
2023-05-16T21:55:08.981Z,18.44
2023-05-16T21:57:35.975Z,18.38
2023-05-16T22:00:09.771Z,18.34
2023-05-16T22:02:37.241Z,18.29
2023-05-16T22:05:04.782Z,18.24
2023-05-16T22:07:31.689Z,18.20
2023-05-16T22:10:01.741Z,18.15
2023-05-16T22:12:28.222Z,18.10
2023-05-16T22:14:54.998Z,18.07
2023-05-16T22:17:21.531Z,18.03
2023-05-16T22:19:48.278Z,17.99
2023-05-16T22:22:15.067Z,17.96
2023-05-16T22:24:41.764Z,17.93
2023-05-16T22:27:08.168Z,17.88
2023-05-16T22:29:38.176Z,17.86
2023-05-16T22:32:10.037Z,17.80
2023-05-16T22:34:42.503Z,17.79
2023-05-16T22:37:09.580Z,17.75
2023-05-16T22:39:36.348Z,17.70
2023-05-16T22:42:03.747Z,17.66
2023-05-16T22:44:30.256Z,17.61
2023-05-16T22:47:03.650Z,17.56
2023-05-16T22:49:30.056Z,17.53
2023-05-16T22:52:00.605Z,17.48
2023-05-16T22:54:27.043Z,17.43
2023-05-16T22:56:53.749Z,17.41
2023-05-16T22:59:20.184Z,17.36
2023-05-16T23:01:48.754Z,17.33
2023-05-16T23:04:15.318Z,17.30
2023-05-16T23:06:44.750Z,17.28
2023-05-16T23:09:11.563Z,17.21
2023-05-16T23:11:40.469Z,17.15
2023-05-16T23:14:06.861Z,17.10
2023-05-16T23:16:33.295Z,17.06
2023-05-16T23:19:00.186Z,17.03
2023-05-16T23:21:30.596Z,17.00
2023-05-16T23:23:57.141Z,16.96
2023-05-16T23:26:23.489Z,16.95
2023-05-16T23:28:50.301Z,16.93
2023-05-16T23:31:17.485Z,16.90
2023-05-16T23:33:43.919Z,16.87
2023-05-16T23:36:11.480Z,16.85
2023-05-16T23:38:38.448Z,16.83
2023-05-16T23:41:05.095Z,16.80
2023-05-16T23:43:31.553Z,16.79
2023-05-16T23:45:58.238Z,16.76
2023-05-16T23:48:24.851Z,16.74
2023-05-16T23:50:51.864Z,16.71
2023-05-16T23:53:18.304Z,16.68
2023-05-16T23:55:47.193Z,16.65
2023-05-16T23:58:13.647Z,16.64
